sensor_id;sensor_type;location;lat;lon;timestamp;P1;durP1;ratioP1;P2;durP2;ratioP2
53775;SDS011;44276;49.534;6.378;2022-11-11T00:02:19;54.90;;;19.95;;
53775;SDS011;44276;49.534;6.378;2022-11-11T00:04:49;46.70;;;19.45;;
53775;SDS011;44276;49.534;6.378;2022-11-11T00:07:17;61.90;;;22.65;;
53775;SDS011;44276;49.534;6.378;2022-11-11T00:09:46;46.45;;;22.20;;
53775;SDS011;44276;49.534;6.378;2022-11-11T00:12:14;60.08;;;21.75;;
53775;SDS011;44276;49.534;6.378;2022-11-11T00:14:44;59.78;;;20.15;;
53775;SDS011;44276;49.534;6.378;2022-11-11T00:17:12;53.85;;;22.45;;
53775;SDS011;44276;49.534;6.378;2022-11-11T00:20:00;67.00;;;22.00;;
53775;SDS011;44276;49.534;6.378;2022-11-11T00:22:49;61.83;;;21.17;;
53775;SDS011;44276;49.534;6.378;2022-11-11T00:25:35;65.50;;;23.92;;
53775;SDS011;44276;49.534;6.378;2022-11-11T00:28:03;76.55;;;26.33;;
53775;SDS011;44276;49.534;6.378;2022-11-11T00:30:32;68.10;;;22.42;;
53775;SDS011;44276;49.534;6.378;2022-11-11T00:33:00;71.20;;;23.33;;
53775;SDS011;44276;49.534;6.378;2022-11-11T00:35:30;79.45;;;24.60;;
53775;SDS011;44276;49.534;6.378;2022-11-11T00:38:16;73.57;;;22.65;;
53775;SDS011;44276;49.534;6.378;2022-11-11T00:40:58;75.53;;;24.27;;
53775;SDS011;44276;49.534;6.378;2022-11-11T00:43:27;66.75;;;22.60;;
53775;SDS011;44276;49.534;6.378;2022-11-11T00:45:56;74.22;;;22.55;;
53775;SDS011;44276;49.534;6.378;2022-11-11T00:48:38;83.25;;;28.25;;
53775;SDS011;44276;49.534;6.378;2022-11-11T00:51:29;74.00;;;25.55;;
53775;SDS011;44276;49.534;6.378;2022-11-11T00:53:58;85.53;;;24.98;;
53775;SDS011;44276;49.534;6.378;2022-11-11T00:56:26;74.95;;;24.65;;
53775;SDS011;44276;49.534;6.378;2022-11-11T00:58:55;76.10;;;25.05;;
53775;SDS011;44276;49.534;6.378;2022-11-11T01:01:24;84.47;;;26.23;;
53775;SDS011;44276;49.534;6.378;2022-11-11T01:03:53;84.10;;;26.80;;
53775;SDS011;44276;49.534;6.378;2022-11-11T01:06:21;71.32;;;25.92;;
53775;SDS011;44276;49.534;6.378;2022-11-11T01:08:51;76.07;;;24.58;;
53775;SDS011;44276;49.534;6.378;2022-11-11T01:11:20;79.68;;;24.67;;
53775;SDS011;44276;49.534;6.378;2022-11-11T01:13:51;77.07;;;22.63;;
53775;SDS011;44276;49.534;6.378;2022-11-11T01:16:20;67.97;;;23.63;;
53775;SDS011;44276;49.534;6.378;2022-11-11T01:18:52;70.10;;;22.52;;
53775;SDS011;44276;49.534;6.378;2022-11-11T01:21:22;71.55;;;23.38;;
53775;SDS011;44276;49.534;6.378;2022-11-11T01:23:54;71.90;;;19.83;;
53775;SDS011;44276;49.534;6.378;2022-11-11T01:26:23;61.72;;;21.67;;
53775;SDS011;44276;49.534;6.378;2022-11-11T01:28:57;69.25;;;22.60;;
53775;SDS011;44276;49.534;6.378;2022-11-11T01:31:26;57.90;;;20.17;;
53775;SDS011;44276;49.534;6.378;2022-11-11T01:33:54;74.25;;;24.35;;
53775;SDS011;44276;49.534;6.378;2022-11-11T01:36:24;65.57;;;21.98;;
53775;SDS011;44276;49.534;6.378;2022-11-11T01:38:56;59.13;;;20.20;;
53775;SDS011;44276;49.534;6.378;2022-11-11T01:41:27;61.72;;;19.85;;
53775;SDS011;44276;49.534;6.378;2022-11-11T01:44:04;58.95;;;21.42;;
53775;SDS011;44276;49.534;6.378;2022-11-11T01:46:48;66.25;;;20.33;;
53775;SDS011;44276;49.534;6.378;2022-11-11T01:49:23;64.68;;;18.90;;
53775;SDS011;44276;49.534;6.378;2022-11-11T01:51:59;55.90;;;19.13;;
53775;SDS011;44276;49.534;6.378;2022-11-11T01:54:39;63.08;;;17.92;;
53775;SDS011;44276;49.534;6.378;2022-11-11T01:57:14;52.58;;;16.08;;
53775;SDS011;44276;49.534;6.378;2022-11-11T01:59:52;47.85;;;16.23;;
53775;SDS011;44276;49.534;6.378;2022-11-11T02:02:29;56.78;;;17.73;;
53775;SDS011;44276;49.534;6.378;2022-11-11T02:05:08;70.63;;;19.83;;
53775;SDS011;44276;49.534;6.378;2022-11-11T02:07:57;72.80;;;20.83;;
53775;SDS011;44276;49.534;6.378;2022-11-11T02:10:32;63.67;;;20.63;;
53775;SDS011;44276;49.534;6.378;2022-11-11T02:13:01;61.88;;;21.50;;
53775;SDS011;44276;49.534;6.378;2022-11-11T02:15:48;62.78;;;20.55;;
53775;SDS011;44276;49.534;6.378;2022-11-11T02:18:16;73.80;;;23.55;;
53775;SDS011;44276;49.534;6.378;2022-11-11T02:20:45;67.22;;;21.42;;
53775;SDS011;44276;49.534;6.378;2022-11-11T02:23:15;65.45;;;22.65;;
53775;SDS011;44276;49.534;6.378;2022-11-11T02:25:53;58.03;;;20.00;;
53775;SDS011;44276;49.534;6.378;2022-11-11T02:28:25;67.47;;;19.55;;
53775;SDS011;44276;49.534;6.378;2022-11-11T02:30:56;75.43;;;24.90;;
53775;SDS011;44276;49.534;6.378;2022-11-11T02:33:24;76.85;;;21.05;;
53775;SDS011;44276;49.534;6.378;2022-11-11T02:35:54;67.47;;;22.45;;
53775;SDS011;44276;49.534;6.378;2022-11-11T02:38:25;69.32;;;21.38;;
53775;SDS011;44276;49.534;6.378;2022-11-11T02:40:58;81.35;;;23.17;;
53775;SDS011;44276;49.534;6.378;2022-11-11T02:43:43;67.43;;;20.02;;
53775;SDS011;44276;49.534;6.378;2022-11-11T02:46:12;69.28;;;21.88;;
53775;SDS011;44276;49.534;6.378;2022-11-11T02:48:40;78.18;;;23.05;;
53775;SDS011;44276;49.534;6.378;2022-11-11T02:51:10;70.97;;;20.98;;
53775;SDS011;44276;49.534;6.378;2022-11-11T02:53:38;78.55;;;23.58;;
53775;SDS011;44276;49.534;6.378;2022-11-11T02:56:08;67.68;;;20.73;;
53775;SDS011;44276;49.534;6.378;2022-11-11T02:58:36;74.93;;;21.88;;
53775;SDS011;44276;49.534;6.378;2022-11-11T03:01:05;64.35;;;24.02;;
53775;SDS011;44276;49.534;6.378;2022-11-11T03:03:34;64.20;;;20.80;;
53775;SDS011;44276;49.534;6.378;2022-11-11T03:06:02;67.00;;;22.10;;
53775;SDS011;44276;49.534;6.378;2022-11-11T03:08:31;67.82;;;21.67;;
53775;SDS011;44276;49.534;6.378;2022-11-11T03:10:59;74.28;;;27.10;;
53775;SDS011;44276;49.534;6.378;2022-11-11T03:13:29;76.45;;;23.30;;
53775;SDS011;44276;49.534;6.378;2022-11-11T03:15:58;81.35;;;23.92;;
53775;SDS011;44276;49.534;6.378;2022-11-11T03:18:27;69.75;;;25.98;;
53775;SDS011;44276;49.534;6.378;2022-11-11T03:20:54;65.90;;;23.98;;
53775;SDS011;44276;49.534;6.378;2022-11-11T03:23:51;92.32;;;28.80;;
53775;SDS011;44276;49.534;6.378;2022-11-11T03:26:20;70.15;;;22.13;;
53775;SDS011;44276;49.534;6.378;2022-11-11T03:28:49;75.93;;;25.00;;
53775;SDS011;44276;49.534;6.378;2022-11-11T03:31:18;77.15;;;24.35;;
53775;SDS011;44276;49.534;6.378;2022-11-11T03:33:47;70.85;;;20.92;;
53775;SDS011;44276;49.534;6.378;2022-11-11T03:36:15;73.88;;;20.75;;
53775;SDS011;44276;49.534;6.378;2022-11-11T03:38:43;75.53;;;21.85;;
53775;SDS011;44276;49.534;6.378;2022-11-11T03:41:11;53.22;;;17.85;;
53775;SDS011;44276;49.534;6.378;2022-11-11T03:43:40;64.20;;;19.85;;
53775;SDS011;44276;49.534;6.378;2022-11-11T03:46:09;68.47;;;18.90;;
53775;SDS011;44276;49.534;6.378;2022-11-11T03:48:38;62.13;;;18.75;;
53775;SDS011;44276;49.534;6.378;2022-11-11T03:51:06;58.38;;;19.67;;
53775;SDS011;44276;49.534;6.378;2022-11-11T03:53:35;48.00;;;16.60;;
53775;SDS011;44276;49.534;6.378;2022-11-11T03:56:03;58.00;;;16.90;;
53775;SDS011;44276;49.534;6.378;2022-11-11T03:58:32;51.90;;;16.63;;
53775;SDS011;44276;49.534;6.378;2022-11-11T04:01:01;46.85;;;18.60;;
53775;SDS011;44276;49.534;6.378;2022-11-11T04:03:51;35.28;;;14.07;;
53775;SDS011;44276;49.534;6.378;2022-11-11T04:06:45;41.35;;;13.75;;
53775;SDS011;44276;49.534;6.378;2022-11-11T04:09:31;47.10;;;16.40;;
53775;SDS011;44276;49.534;6.378;2022-11-11T04:12:17;47.72;;;15.13;;
53775;SDS011;44276;49.534;6.378;2022-11-11T04:14:46;60.05;;;18.45;;
53775;SDS011;44276;49.534;6.378;2022-11-11T04:17:32;42.20;;;14.00;;
53775;SDS011;44276;49.534;6.378;2022-11-11T04:20:02;54.78;;;16.55;;
53775;SDS011;44276;49.534;6.378;2022-11-11T04:22:48;53.63;;;16.77;;
53775;SDS011;44276;49.534;6.378;2022-11-11T04:25:18;85.57;;;17.25;;
53775;SDS011;44276;49.534;6.378;2022-11-11T04:28:07;95.30;;;19.58;;
53775;SDS011;44276;49.534;6.378;2022-11-11T04:30:53;57.25;;;16.05;;
53775;SDS011;44276;49.534;6.378;2022-11-11T04:33:23;71.82;;;18.60;;
53775;SDS011;44276;49.534;6.378;2022-11-11T04:35:53;62.85;;;18.60;;
53775;SDS011;44276;49.534;6.378;2022-11-11T04:38:22;70.97;;;17.83;;
53775;SDS011;44276;49.534;6.378;2022-11-11T04:41:08;86.65;;;17.80;;
53775;SDS011;44276;49.534;6.378;2022-11-11T04:43:38;77.03;;;20.85;;
53775;SDS011;44276;49.534;6.378;2022-11-11T04:46:20;61.08;;;18.02;;
53775;SDS011;44276;49.534;6.378;2022-11-11T04:48:49;53.03;;;16.15;;
53775;SDS011;44276;49.534;6.378;2022-11-11T04:51:18;76.95;;;21.67;;
53775;SDS011;44276;49.534;6.378;2022-11-11T04:54:06;49.45;;;15.93;;
53775;SDS011;44276;49.534;6.378;2022-11-11T04:56:35;49.35;;;15.70;;
53775;SDS011;44276;49.534;6.378;2022-11-11T04:59:19;57.75;;;16.92;;
53775;SDS011;44276;49.534;6.378;2022-11-11T05:01:47;50.83;;;15.02;;
53775;SDS011;44276;49.534;6.378;2022-11-11T05:04:33;48.60;;;16.60;;
53775;SDS011;44276;49.534;6.378;2022-11-11T05:07:03;51.78;;;15.20;;
53775;SDS011;44276;49.534;6.378;2022-11-11T05:09:49;50.00;;;17.15;;
53775;SDS011;44276;49.534;6.378;2022-11-11T05:12:19;43.85;;;14.13;;
53775;SDS011;44276;49.534;6.378;2022-11-11T05:14:48;56.38;;;16.65;;
53775;SDS011;44276;49.534;6.378;2022-11-11T05:17:34;48.22;;;16.23;;
53775;SDS011;44276;49.534;6.378;2022-11-11T05:20:20;56.20;;;18.58;;
53775;SDS011;44276;49.534;6.378;2022-11-11T05:23:10;53.45;;;16.50;;
53775;SDS011;44276;49.534;6.378;2022-11-11T05:25:39;60.72;;;19.48;;
53775;SDS011;44276;49.534;6.378;2022-11-11T05:28:06;55.63;;;18.83;;
53775;SDS011;44276;49.534;6.378;2022-11-11T05:30:34;58.83;;;19.27;;
53775;SDS011;44276;49.534;6.378;2022-11-11T05:33:06;60.03;;;18.02;;
53775;SDS011;44276;49.534;6.378;2022-11-11T05:35:35;43.67;;;15.65;;
53775;SDS011;44276;49.534;6.378;2022-11-11T05:38:03;62.65;;;19.98;;
53775;SDS011;44276;49.534;6.378;2022-11-11T05:40:50;61.28;;;18.52;;
53775;SDS011;44276;49.534;6.378;2022-11-11T05:43:19;58.40;;;16.92;;
53775;SDS011;44276;49.534;6.378;2022-11-11T05:45:48;40.17;;;15.60;;
53775;SDS011;44276;49.534;6.378;2022-11-11T05:48:16;48.65;;;16.02;;
53775;SDS011;44276;49.534;6.378;2022-11-11T05:50:45;42.38;;;15.35;;
53775;SDS011;44276;49.534;6.378;2022-11-11T05:53:13;52.78;;;17.45;;
53775;SDS011;44276;49.534;6.378;2022-11-11T05:55:42;49.40;;;14.48;;
53775;SDS011;44276;49.534;6.378;2022-11-11T05:58:12;44.88;;;15.88;;
53775;SDS011;44276;49.534;6.378;2022-11-11T06:00:40;40.00;;;14.27;;
53775;SDS011;44276;49.534;6.378;2022-11-11T06:03:09;29.98;;;11.68;;
53775;SDS011;44276;49.534;6.378;2022-11-11T06:05:37;35.38;;;13.07;;
53775;SDS011;44276;49.534;6.378;2022-11-11T06:08:05;33.58;;;12.27;;
53775;SDS011;44276;49.534;6.378;2022-11-11T06:10:34;25.40;;;10.30;;
53775;SDS011;44276;49.534;6.378;2022-11-11T06:13:03;22.90;;;10.15;;
53775;SDS011;44276;49.534;6.378;2022-11-11T06:15:37;26.65;;;9.45;;
53775;SDS011;44276;49.534;6.378;2022-11-11T06:18:07;20.27;;;10.25;;
53775;SDS011;44276;49.534;6.378;2022-11-11T06:20:35;17.75;;;8.02;;
53775;SDS011;44276;49.534;6.378;2022-11-11T06:23:04;23.38;;;8.02;;
53775;SDS011;44276;49.534;6.378;2022-11-11T06:25:33;19.23;;;6.82;;
53775;SDS011;44276;49.534;6.378;2022-11-11T06:28:18;9.13;;;4.45;;
53775;SDS011;44276;49.534;6.378;2022-11-11T06:30:49;14.55;;;5.30;;
53775;SDS011;44276;49.534;6.378;2022-11-11T06:33:17;14.05;;;5.95;;
53775;SDS011;44276;49.534;6.378;2022-11-11T06:35:47;10.60;;;5.07;;
53775;SDS011;44276;49.534;6.378;2022-11-11T06:38:16;10.60;;;4.80;;
53775;SDS011;44276;49.534;6.378;2022-11-11T06:40:45;10.88;;;6.07;;
53775;SDS011;44276;49.534;6.378;2022-11-11T06:43:13;10.25;;;4.93;;
53775;SDS011;44276;49.534;6.378;2022-11-11T06:45:42;15.13;;;6.07;;
53775;SDS011;44276;49.534;6.378;2022-11-11T06:48:13;13.70;;;6.13;;
53775;SDS011;44276;49.534;6.378;2022-11-11T06:50:41;21.35;;;8.93;;
53775;SDS011;44276;49.534;6.378;2022-11-11T06:53:10;16.88;;;6.45;;
53775;SDS011;44276;49.534;6.378;2022-11-11T06:55:40;16.05;;;6.68;;
53775;SDS011;44276;49.534;6.378;2022-11-11T06:58:10;13.50;;;6.15;;
53775;SDS011;44276;49.534;6.378;2022-11-11T07:00:41;15.38;;;6.43;;
53775;SDS011;44276;49.534;6.378;2022-11-11T07:03:11;17.90;;;7.68;;
53775;SDS011;44276;49.534;6.378;2022-11-11T07:05:49;13.35;;;5.90;;
53775;SDS011;44276;49.534;6.378;2022-11-11T07:08:24;15.88;;;6.95;;
53775;SDS011;44276;49.534;6.378;2022-11-11T07:10:53;17.10;;;8.02;;
53775;SDS011;44276;49.534;6.378;2022-11-11T07:13:22;24.95;;;7.35;;
53775;SDS011;44276;49.534;6.378;2022-11-11T07:15:51;15.30;;;5.82;;
53775;SDS011;44276;49.534;6.378;2022-11-11T07:18:21;13.18;;;7.10;;
53775;SDS011;44276;49.534;6.378;2022-11-11T07:20:50;15.85;;;7.72;;
53775;SDS011;44276;49.534;6.378;2022-11-11T07:23:18;21.38;;;9.27;;
53775;SDS011;44276;49.534;6.378;2022-11-11T07:25:46;19.90;;;8.60;;
53775;SDS011;44276;49.534;6.378;2022-11-11T07:28:14;19.80;;;6.63;;
53775;SDS011;44276;49.534;6.378;2022-11-11T07:30:43;17.08;;;6.70;;
53775;SDS011;44276;49.534;6.378;2022-11-11T07:33:11;21.80;;;8.18;;
53775;SDS011;44276;49.534;6.378;2022-11-11T07:35:41;13.98;;;7.03;;
53775;SDS011;44276;49.534;6.378;2022-11-11T07:38:09;16.02;;;7.90;;
53775;SDS011;44276;49.534;6.378;2022-11-11T07:40:37;14.80;;;6.75;;
53775;SDS011;44276;49.534;6.378;2022-11-11T07:43:06;14.18;;;9.00;;
53775;SDS011;44276;49.534;6.378;2022-11-11T07:45:34;18.10;;;7.75;;
53775;SDS011;44276;49.534;6.378;2022-11-11T07:48:02;17.13;;;8.27;;
53775;SDS011;44276;49.534;6.378;2022-11-11T07:50:31;19.08;;;10.80;;
53775;SDS011;44276;49.534;6.378;2022-11-11T07:53:01;19.85;;;8.57;;
53775;SDS011;44276;49.534;6.378;2022-11-11T07:55:30;17.50;;;8.18;;
53775;SDS011;44276;49.534;6.378;2022-11-11T07:57:58;22.55;;;10.55;;
53775;SDS011;44276;49.534;6.378;2022-11-11T08:00:27;20.27;;;10.60;;
53775;SDS011;44276;49.534;6.378;2022-11-11T08:02:56;34.35;;;11.50;;
53775;SDS011;44276;49.534;6.378;2022-11-11T08:05:28;27.13;;;11.02;;
53775;SDS011;44276;49.534;6.378;2022-11-11T08:08:02;21.08;;;10.07;;
53775;SDS011;44276;49.534;6.378;2022-11-11T08:10:31;21.17;;;9.60;;
53775;SDS011;44276;49.534;6.378;2022-11-11T08:13:00;31.83;;;12.95;;
53775;SDS011;44276;49.534;6.378;2022-11-11T08:15:47;26.48;;;9.90;;
53775;SDS011;44276;49.534;6.378;2022-11-11T08:18:16;24.98;;;10.68;;
53775;SDS011;44276;49.534;6.378;2022-11-11T08:20:44;23.50;;;10.90;;
53775;SDS011;44276;49.534;6.378;2022-11-11T08:23:21;24.75;;;11.73;;
53775;SDS011;44276;49.534;6.378;2022-11-11T08:26:17;21.00;;;10.13;;
53775;SDS011;44276;49.534;6.378;2022-11-11T08:28:54;24.42;;;11.27;;
53775;SDS011;44276;49.534;6.378;2022-11-11T08:31:23;16.20;;;9.13;;
53775;SDS011;44276;49.534;6.378;2022-11-11T08:33:51;28.77;;;11.73;;
53775;SDS011;44276;49.534;6.378;2022-11-11T08:36:20;22.58;;;8.75;;
53775;SDS011;44276;49.534;6.378;2022-11-11T08:38:52;22.90;;;11.57;;
53775;SDS011;44276;49.534;6.378;2022-11-11T08:41:20;17.95;;;11.52;;
53775;SDS011;44276;49.534;6.378;2022-11-11T08:43:53;25.05;;;11.10;;
53775;SDS011;44276;49.534;6.378;2022-11-11T08:46:23;22.23;;;10.63;;
53775;SDS011;44276;49.534;6.378;2022-11-11T08:48:51;17.92;;;9.48;;
53775;SDS011;44276;49.534;6.378;2022-11-11T08:51:20;19.50;;;10.88;;
53775;SDS011;44276;49.534;6.378;2022-11-11T08:53:48;24.02;;;10.80;;
53775;SDS011;44276;49.534;6.378;2022-11-11T08:56:18;26.23;;;11.65;;
53775;SDS011;44276;49.534;6.378;2022-11-11T08:58:46;23.65;;;10.55;;
53775;SDS011;44276;49.534;6.378;2022-11-11T09:01:15;22.70;;;9.02;;
53775;SDS011;44276;49.534;6.378;2022-11-11T09:03:44;20.33;;;9.82;;
53775;SDS011;44276;49.534;6.378;2022-11-11T09:06:12;21.33;;;9.40;;
53775;SDS011;44276;49.534;6.378;2022-11-11T09:08:41;21.08;;;9.20;;
53775;SDS011;44276;49.534;6.378;2022-11-11T09:11:11;20.02;;;10.95;;
53775;SDS011;44276;49.534;6.378;2022-11-11T09:13:40;23.90;;;11.13;;
53775;SDS011;44276;49.534;6.378;2022-11-11T09:16:09;28.45;;;11.43;;
53775;SDS011;44276;49.534;6.378;2022-11-11T09:18:37;20.60;;;9.30;;
53775;SDS011;44276;49.534;6.378;2022-11-11T09:21:06;22.08;;;9.38;;
53775;SDS011;44276;49.534;6.378;2022-11-11T09:23:34;22.52;;;9.80;;
53775;SDS011;44276;49.534;6.378;2022-11-11T09:26:02;20.30;;;8.95;;
53775;SDS011;44276;49.534;6.378;2022-11-11T09:28:31;26.65;;;12.23;;
53775;SDS011;44276;49.534;6.378;2022-11-11T14:00:04;29.95;;;14.10;;
53775;SDS011;44276;49.534;6.378;2022-11-11T14:12:19;26.33;;;12.38;;
53775;SDS011;44276;49.534;6.378;2022-11-11T14:14:59;39.80;;;13.98;;
53775;SDS011;44276;49.534;6.378;2022-11-11T14:17:34;32.58;;;15.35;;
53775;SDS011;44276;49.534;6.378;2022-11-11T14:20:32;20.73;;;12.05;;
53775;SDS011;44276;49.534;6.378;2022-11-11T14:26:21;27.50;;;13.87;;
53775;SDS011;44276;49.534;6.378;2022-11-11T14:28:58;29.88;;;13.73;;
53775;SDS011;44276;49.534;6.378;2022-11-11T14:31:46;30.20;;;16.02;;
53775;SDS011;44276;49.534;6.378;2022-11-11T14:34:36;34.03;;;16.25;;
53775;SDS011;44276;49.534;6.378;2022-11-11T14:37:55;29.50;;;17.00;;
53775;SDS011;44276;49.534;6.378;2022-11-11T14:40:38;37.72;;;15.15;;
53775;SDS011;44276;49.534;6.378;2022-11-11T14:46:16;29.85;;;15.23;;
53775;SDS011;44276;49.534;6.378;2022-11-11T14:48:50;34.00;;;13.43;;
53775;SDS011;44276;49.534;6.378;2022-11-11T14:54:33;32.35;;;14.95;;
53775;SDS011;44276;49.534;6.378;2022-11-11T14:57:23;29.80;;;15.50;;
53775;SDS011;44276;49.534;6.378;2022-11-11T14:59:57;32.72;;;15.95;;
53775;SDS011;44276;49.534;6.378;2022-11-11T15:02:32;37.42;;;16.15;;
53775;SDS011;44276;49.534;6.378;2022-11-11T15:05:04;30.80;;;13.68;;
53775;SDS011;44276;49.534;6.378;2022-11-11T15:08:00;32.00;;;13.05;;
53775;SDS011;44276;49.534;6.378;2022-11-11T15:10:43;26.48;;;12.38;;
53775;SDS011;44276;49.534;6.378;2022-11-11T15:16:42;23.48;;;12.60;;
53775;SDS011;44276;49.534;6.378;2022-11-11T15:19:31;30.23;;;12.82;;
53775;SDS011;44276;49.534;6.378;2022-11-11T15:22:22;29.65;;;11.95;;
53775;SDS011;44276;49.534;6.378;2022-11-11T15:25:24;29.33;;;14.00;;
53775;SDS011;44276;49.534;6.378;2022-11-11T15:28:08;26.70;;;13.43;;
53775;SDS011;44276;49.534;6.378;2022-11-11T15:31:08;30.67;;;14.63;;
53775;SDS011;44276;49.534;6.378;2022-11-11T15:33:52;20.48;;;10.82;;
53775;SDS011;44276;49.534;6.378;2022-11-11T15:36:38;28.30;;;12.07;;
53775;SDS011;44276;49.534;6.378;2022-11-11T15:39:19;23.10;;;11.60;;
53775;SDS011;44276;49.534;6.378;2022-11-11T15:41:53;19.77;;;10.85;;
53775;SDS011;44276;49.534;6.378;2022-11-11T15:44:23;24.75;;;12.38;;
53775;SDS011;44276;49.534;6.378;2022-11-11T15:46:56;25.63;;;12.10;;
53775;SDS011;44276;49.534;6.378;2022-11-11T15:49:35;24.02;;;11.02;;
53775;SDS011;44276;49.534;6.378;2022-11-11T15:52:21;24.77;;;11.50;;
53775;SDS011;44276;49.534;6.378;2022-11-11T15:54:54;25.65;;;12.38;;
53775;SDS011;44276;49.534;6.378;2022-11-11T15:57:27;27.38;;;13.13;;
53775;SDS011;44276;49.534;6.378;2022-11-11T15:59:58;33.17;;;16.45;;
53775;SDS011;44276;49.534;6.378;2022-11-11T16:02:29;33.33;;;13.25;;
53775;SDS011;44276;49.534;6.378;2022-11-11T16:05:02;23.35;;;12.20;;
53775;SDS011;44276;49.534;6.378;2022-11-11T16:07:42;23.52;;;12.57;;
53775;SDS011;44276;49.534;6.378;2022-11-11T16:10:14;36.67;;;14.35;;
53775;SDS011;44276;49.534;6.378;2022-11-11T16:12:56;29.98;;;13.45;;
53775;SDS011;44276;49.534;6.378;2022-11-11T16:15:32;27.90;;;13.10;;
53775;SDS011;44276;49.534;6.378;2022-11-11T16:18:11;22.60;;;10.90;;
53775;SDS011;44276;49.534;6.378;2022-11-11T16:20:51;24.70;;;11.98;;
53775;SDS011;44276;49.534;6.378;2022-11-11T16:23:30;23.98;;;12.15;;
53775;SDS011;44276;49.534;6.378;2022-11-11T16:25:59;24.50;;;12.68;;
53775;SDS011;44276;49.534;6.378;2022-11-11T16:28:32;26.25;;;13.90;;
53775;SDS011;44276;49.534;6.378;2022-11-11T16:31:20;23.88;;;12.27;;
53775;SDS011;44276;49.534;6.378;2022-11-11T16:34:23;24.50;;;13.30;;
53775;SDS011;44276;49.534;6.378;2022-11-11T16:37:08;21.30;;;11.05;;
53775;SDS011;44276;49.534;6.378;2022-11-11T16:39:41;24.17;;;11.13;;
53775;SDS011;44276;49.534;6.378;2022-11-11T16:42:17;22.90;;;11.82;;
53775;SDS011;44276;49.534;6.378;2022-11-11T16:44:52;24.27;;;11.50;;
53775;SDS011;44276;49.534;6.378;2022-11-11T16:47:40;22.83;;;13.60;;
53775;SDS011;44276;49.534;6.378;2022-11-11T16:50:18;23.17;;;10.20;;
53775;SDS011;44276;49.534;6.378;2022-11-11T16:52:50;23.48;;;11.25;;
53775;SDS011;44276;49.534;6.378;2022-11-11T16:55:23;22.48;;;9.93;;
53775;SDS011;44276;49.534;6.378;2022-11-11T16:57:57;24.75;;;10.93;;
53775;SDS011;44276;49.534;6.378;2022-11-11T17:00:30;25.73;;;10.63;;
53775;SDS011;44276;49.534;6.378;2022-11-11T17:03:09;23.45;;;10.68;;
53775;SDS011;44276;49.534;6.378;2022-11-11T17:05:51;21.83;;;12.68;;
53775;SDS011;44276;49.534;6.378;2022-11-11T17:08:33;19.15;;;9.93;;
53775;SDS011;44276;49.534;6.378;2022-11-11T17:11:04;17.52;;;8.93;;
53775;SDS011;44276;49.534;6.378;2022-11-11T17:13:35;23.08;;;10.85;;
53775;SDS011;44276;49.534;6.378;2022-11-11T17:16:09;21.08;;;9.63;;
53775;SDS011;44276;49.534;6.378;2022-11-11T17:18:40;22.60;;;9.68;;
53775;SDS011;44276;49.534;6.378;2022-11-11T17:21:08;23.73;;;11.68;;
53775;SDS011;44276;49.534;6.378;2022-11-11T17:23:40;20.75;;;10.57;;
53775;SDS011;44276;49.534;6.378;2022-11-11T17:26:08;23.92;;;10.13;;
53775;SDS011;44276;49.534;6.378;2022-11-11T17:28:37;22.85;;;11.07;;
53775;SDS011;44276;49.534;6.378;2022-11-11T17:31:10;22.55;;;11.00;;
53775;SDS011;44276;49.534;6.378;2022-11-11T17:33:40;19.27;;;8.75;;
53775;SDS011;44276;49.534;6.378;2022-11-11T17:36:09;24.10;;;10.88;;
53775;SDS011;44276;49.534;6.378;2022-11-11T17:38:37;25.98;;;11.45;;
53775;SDS011;44276;49.534;6.378;2022-11-11T17:41:05;27.30;;;12.35;;
53775;SDS011;44276;49.534;6.378;2022-11-11T17:43:35;21.88;;;10.63;;
53775;SDS011;44276;49.534;6.378;2022-11-11T17:46:04;27.60;;;11.27;;
53775;SDS011;44276;49.534;6.378;2022-11-11T17:48:34;27.73;;;11.10;;
53775;SDS011;44276;49.534;6.378;2022-11-11T17:51:03;30.27;;;11.77;;
53775;SDS011;44276;49.534;6.378;2022-11-11T17:53:32;22.80;;;10.95;;
53775;SDS011;44276;49.534;6.378;2022-11-11T17:56:02;29.48;;;11.55;;
53775;SDS011;44276;49.534;6.378;2022-11-11T17:58:34;26.13;;;12.05;;
53775;SDS011;44276;49.534;6.378;2022-11-11T18:01:07;33.13;;;12.35;;
53775;SDS011;44276;49.534;6.378;2022-11-11T18:03:39;29.08;;;11.85;;
53775;SDS011;44276;49.534;6.378;2022-11-11T18:06:10;32.83;;;13.63;;
53775;SDS011;44276;49.534;6.378;2022-11-11T18:08:40;25.67;;;11.80;;
53775;SDS011;44276;49.534;6.378;2022-11-11T18:11:08;25.92;;;11.30;;
53775;SDS011;44276;49.534;6.378;2022-11-11T18:13:37;30.95;;;13.80;;
53775;SDS011;44276;49.534;6.378;2022-11-11T18:16:12;20.83;;;11.32;;
53775;SDS011;44276;49.534;6.378;2022-11-11T18:18:44;31.85;;;14.40;;
53775;SDS011;44276;49.534;6.378;2022-11-11T18:21:13;33.05;;;14.02;;
53775;SDS011;44276;49.534;6.378;2022-11-11T18:23:43;24.95;;;12.15;;
53775;SDS011;44276;49.534;6.378;2022-11-11T18:26:16;30.25;;;12.35;;
53775;SDS011;44276;49.534;6.378;2022-11-11T18:28:49;38.72;;;17.67;;
53775;SDS011;44276;49.534;6.378;2022-11-11T18:31:17;36.17;;;16.92;;
53775;SDS011;44276;49.534;6.378;2022-11-11T18:33:48;32.83;;;15.20;;
53775;SDS011;44276;49.534;6.378;2022-11-11T18:36:19;35.33;;;14.32;;
53775;SDS011;44276;49.534;6.378;2022-11-11T18:38:48;36.45;;;16.05;;
53775;SDS011;44276;49.534;6.378;2022-11-11T18:41:17;35.88;;;15.00;;
53775;SDS011;44276;49.534;6.378;2022-11-11T18:43:48;32.63;;;16.70;;
53775;SDS011;44276;49.534;6.378;2022-11-11T18:46:20;42.05;;;16.27;;
53775;SDS011;44276;49.534;6.378;2022-11-11T18:48:53;43.05;;;17.88;;
53775;SDS011;44276;49.534;6.378;2022-11-11T18:51:22;45.60;;;18.98;;
53775;SDS011;44276;49.534;6.378;2022-11-11T18:53:52;37.17;;;16.67;;
53775;SDS011;44276;49.534;6.378;2022-11-11T18:56:21;43.60;;;15.93;;
53775;SDS011;44276;49.534;6.378;2022-11-11T18:58:53;45.53;;;17.05;;
53775;SDS011;44276;49.534;6.378;2022-11-11T19:01:23;35.92;;;13.73;;
53775;SDS011;44276;49.534;6.378;2022-11-11T19:03:56;35.53;;;15.18;;
53775;SDS011;44276;49.534;6.378;2022-11-11T19:06:28;39.45;;;16.73;;
53775;SDS011;44276;49.534;6.378;2022-11-11T19:09:00;41.10;;;16.42;;
53775;SDS011;44276;49.534;6.378;2022-11-11T19:11:32;39.58;;;17.63;;
53775;SDS011;44276;49.534;6.378;2022-11-11T19:14:03;40.88;;;18.08;;
53775;SDS011;44276;49.534;6.378;2022-11-11T19:16:33;44.45;;;17.23;;
53775;SDS011;44276;49.534;6.378;2022-11-11T19:19:04;51.22;;;19.63;;
53775;SDS011;44276;49.534;6.378;2022-11-11T19:21:34;45.92;;;19.65;;
53775;SDS011;44276;49.534;6.378;2022-11-11T19:24:05;47.10;;;19.70;;
53775;SDS011;44276;49.534;6.378;2022-11-11T19:26:35;46.42;;;20.13;;
53775;SDS011;44276;49.534;6.378;2022-11-11T19:29:04;48.42;;;19.33;;
53775;SDS011;44276;49.534;6.378;2022-11-11T19:31:33;52.60;;;19.80;;
53775;SDS011;44276;49.534;6.378;2022-11-11T19:34:01;48.72;;;18.92;;
53775;SDS011;44276;49.534;6.378;2022-11-11T19:36:31;48.30;;;20.85;;
53775;SDS011;44276;49.534;6.378;2022-11-11T19:39:01;52.42;;;19.02;;
53775;SDS011;44276;49.534;6.378;2022-11-11T19:41:31;51.25;;;19.40;;
53775;SDS011;44276;49.534;6.378;2022-11-11T19:44:00;53.28;;;21.75;;
53775;SDS011;44276;49.534;6.378;2022-11-11T19:46:28;62.28;;;20.17;;
53775;SDS011;44276;49.534;6.378;2022-11-11T19:48:58;44.30;;;19.52;;
53775;SDS011;44276;49.534;6.378;2022-11-11T19:51:27;48.55;;;20.48;;